sensor_id;sensor_type;location;lat;lon;timestamp;P1;durP1;ratioP1;P2;durP2;ratioP2
70067;SDS011;57425;51.616;6.680;2022-09-24T00:01:14;20.38;;;11.25;;
70067;SDS011;57425;51.616;6.680;2022-09-24T00:03:42;18.83;;;9.80;;
70067;SDS011;57425;51.616;6.680;2022-09-24T00:06:14;18.20;;;10.02;;
70067;SDS011;57425;51.616;6.680;2022-09-24T00:08:40;16.08;;;10.13;;
70067;SDS011;57425;51.616;6.680;2022-09-24T00:11:06;18.67;;;10.35;;
70067;SDS011;57425;51.616;6.680;2022-09-24T00:13:33;20.40;;;9.75;;
70067;SDS011;57425;51.616;6.680;2022-09-24T00:16:07;26.10;;;11.00;;
70067;SDS011;57425;51.616;6.680;2022-09-24T00:18:37;19.27;;;10.20;;
70067;SDS011;57425;51.616;6.680;2022-09-24T00:23:41;18.70;;;10.00;;
70067;SDS011;57425;51.616;6.680;2022-09-24T00:26:08;14.52;;;9.13;;
70067;SDS011;57425;51.616;6.680;2022-09-24T00:29:00;16.77;;;10.38;;
70067;SDS011;57425;51.616;6.680;2022-09-24T00:31:26;18.20;;;9.15;;
70067;SDS011;57425;51.616;6.680;2022-09-24T00:33:52;16.25;;;9.52;;
70067;SDS011;57425;51.616;6.680;2022-09-24T00:36:18;21.02;;;10.10;;
70067;SDS011;57425;51.616;6.680;2022-09-24T00:38:49;18.27;;;10.70;;
70067;SDS011;57425;51.616;6.680;2022-09-24T00:41:16;18.73;;;10.15;;
70067;SDS011;57425;51.616;6.680;2022-09-24T00:43:44;19.33;;;11.23;;
70067;SDS011;57425;51.616;6.680;2022-09-24T00:46:13;17.15;;;9.70;;
70067;SDS011;57425;51.616;6.680;2022-09-24T00:48:42;23.77;;;10.57;;
70067;SDS011;57425;51.616;6.680;2022-09-24T00:51:11;19.45;;;9.75;;
70067;SDS011;57425;51.616;6.680;2022-09-24T00:53:40;16.92;;;9.30;;
70067;SDS011;57425;51.616;6.680;2022-09-24T00:56:08;17.02;;;9.48;;
70067;SDS011;57425;51.616;6.680;2022-09-24T00:58:39;18.77;;;9.90;;
70067;SDS011;57425;51.616;6.680;2022-09-24T01:01:07;16.42;;;8.93;;
70067;SDS011;57425;51.616;6.680;2022-09-24T01:03:33;20.08;;;10.18;;
70067;SDS011;57425;51.616;6.680;2022-09-24T01:08:35;18.00;;;10.32;;
70067;SDS011;57425;51.616;6.680;2022-09-24T01:14:07;20.60;;;10.20;;
70067;SDS011;57425;51.616;6.680;2022-09-24T01:30:30;15.52;;;9.40;;
70067;SDS011;57425;51.616;6.680;2022-09-24T01:33:02;19.75;;;10.85;;
70067;SDS011;57425;51.616;6.680;2022-09-24T01:35:38;22.80;;;11.52;;
70067;SDS011;57425;51.616;6.680;2022-09-24T01:38:19;25.50;;;11.60;;
70067;SDS011;57425;51.616;6.680;2022-09-24T01:40:49;18.65;;;10.70;;
70067;SDS011;57425;51.616;6.680;2022-09-24T01:43:16;19.95;;;11.18;;
70067;SDS011;57425;51.616;6.680;2022-09-24T01:45:45;19.65;;;11.77;;
70067;SDS011;57425;51.616;6.680;2022-09-24T01:48:11;21.90;;;11.00;;
70067;SDS011;57425;51.616;6.680;2022-09-24T01:50:42;26.98;;;10.75;;
70067;SDS011;57425;51.616;6.680;2022-09-24T01:53:57;20.17;;;10.35;;
70067;SDS011;57425;51.616;6.680;2022-09-24T01:56:49;22.23;;;10.48;;
70067;SDS011;57425;51.616;6.680;2022-09-24T01:59:21;20.63;;;11.23;;
70067;SDS011;57425;51.616;6.680;2022-09-24T02:01:56;21.90;;;11.05;;
70067;SDS011;57425;51.616;6.680;2022-09-24T02:04:49;19.20;;;10.32;;
70067;SDS011;57425;51.616;6.680;2022-09-24T02:07:21;20.00;;;11.05;;
70067;SDS011;57425;51.616;6.680;2022-09-24T02:09:54;18.95;;;11.18;;
70067;SDS011;57425;51.616;6.680;2022-09-24T02:12:26;17.75;;;10.70;;
70067;SDS011;57425;51.616;6.680;2022-09-24T02:15:06;23.63;;;12.15;;
70067;SDS011;57425;51.616;6.680;2022-09-24T02:17:38;19.98;;;12.38;;
70067;SDS011;57425;51.616;6.680;2022-09-24T02:20:25;19.23;;;11.73;;
70067;SDS011;57425;51.616;6.680;2022-09-24T02:22:53;18.98;;;12.07;;
70067;SDS011;57425;51.616;6.680;2022-09-24T02:25:23;22.48;;;12.77;;
70067;SDS011;57425;51.616;6.680;2022-09-24T02:27:53;23.42;;;13.20;;
70067;SDS011;57425;51.616;6.680;2022-09-24T02:30:19;25.77;;;12.57;;
70067;SDS011;57425;51.616;6.680;2022-09-24T02:32:44;23.05;;;12.75;;
70067;SDS011;57425;51.616;6.680;2022-09-24T02:35:11;24.05;;;12.48;;
70067;SDS011;57425;51.616;6.680;2022-09-24T02:37:38;22.70;;;12.63;;
70067;SDS011;57425;51.616;6.680;2022-09-24T02:40:07;20.52;;;12.73;;
70067;SDS011;57425;51.616;6.680;2022-09-24T02:42:37;21.90;;;11.43;;
70067;SDS011;57425;51.616;6.680;2022-09-24T02:45:05;26.05;;;13.57;;
70067;SDS011;57425;51.616;6.680;2022-09-24T02:47:31;19.88;;;11.15;;
70067;SDS011;57425;51.616;6.680;2022-09-24T02:49:57;26.05;;;13.70;;
70067;SDS011;57425;51.616;6.680;2022-09-24T02:52:23;23.70;;;13.23;;
70067;SDS011;57425;51.616;6.680;2022-09-24T02:54:48;23.23;;;12.43;;
70067;SDS011;57425;51.616;6.680;2022-09-24T02:57:15;22.90;;;12.40;;
70067;SDS011;57425;51.616;6.680;2022-09-24T02:59:42;23.08;;;13.10;;
70067;SDS011;57425;51.616;6.680;2022-09-24T03:02:08;27.48;;;13.45;;
70067;SDS011;57425;51.616;6.680;2022-09-24T03:04:33;24.45;;;12.55;;
70067;SDS011;57425;51.616;6.680;2022-09-24T03:06:59;26.60;;;13.70;;
70067;SDS011;57425;51.616;6.680;2022-09-24T03:09:25;24.92;;;12.88;;
70067;SDS011;57425;51.616;6.680;2022-09-24T03:11:50;30.77;;;13.30;;
70067;SDS011;57425;51.616;6.680;2022-09-24T03:14:16;21.25;;;12.48;;
70067;SDS011;57425;51.616;6.680;2022-09-24T03:16:42;28.55;;;13.73;;
70067;SDS011;57425;51.616;6.680;2022-09-24T03:19:07;25.65;;;13.77;;
70067;SDS011;57425;51.616;6.680;2022-09-24T03:21:33;25.45;;;13.73;;
70067;SDS011;57425;51.616;6.680;2022-09-24T03:23:59;27.42;;;13.50;;
70067;SDS011;57425;51.616;6.680;2022-09-24T03:26:24;23.10;;;13.85;;
70067;SDS011;57425;51.616;6.680;2022-09-24T03:28:50;22.05;;;12.95;;
70067;SDS011;57425;51.616;6.680;2022-09-24T03:31:17;27.88;;;13.57;;
70067;SDS011;57425;51.616;6.680;2022-09-24T03:33:46;27.50;;;13.00;;
70067;SDS011;57425;51.616;6.680;2022-09-24T03:36:14;21.73;;;12.95;;
70067;SDS011;57425;51.616;6.680;2022-09-24T03:38:41;20.65;;;12.75;;
70067;SDS011;57425;51.616;6.680;2022-09-24T03:41:09;28.63;;;14.48;;
70067;SDS011;57425;51.616;6.680;2022-09-24T03:43:35;26.20;;;13.80;;
70067;SDS011;57425;51.616;6.680;2022-09-24T03:46:02;22.75;;;13.43;;
70067;SDS011;57425;51.616;6.680;2022-09-24T03:48:29;22.95;;;13.50;;
70067;SDS011;57425;51.616;6.680;2022-09-24T03:50:55;24.85;;;14.18;;
70067;SDS011;57425;51.616;6.680;2022-09-24T03:53:21;23.20;;;14.25;;
70067;SDS011;57425;51.616;6.680;2022-09-24T03:55:51;27.60;;;14.50;;
70067;SDS011;57425;51.616;6.680;2022-09-24T03:58:18;24.02;;;12.70;;
70067;SDS011;57425;51.616;6.680;2022-09-24T04:00:44;24.55;;;13.00;;
70067;SDS011;57425;51.616;6.680;2022-09-24T04:03:10;24.95;;;13.13;;
70067;SDS011;57425;51.616;6.680;2022-09-24T04:05:36;29.02;;;13.32;;
70067;SDS011;57425;51.616;6.680;2022-09-24T04:08:02;25.48;;;12.27;;
70067;SDS011;57425;51.616;6.680;2022-09-24T04:10:29;27.50;;;13.27;;
70067;SDS011;57425;51.616;6.680;2022-09-24T04:12:55;23.50;;;13.18;;
70067;SDS011;57425;51.616;6.680;2022-09-24T04:15:21;25.30;;;13.35;;
70067;SDS011;57425;51.616;6.680;2022-09-24T04:17:50;26.13;;;13.32;;
70067;SDS011;57425;51.616;6.680;2022-09-24T04:20:17;25.60;;;12.65;;
70067;SDS011;57425;51.616;6.680;2022-09-24T04:22:51;28.20;;;13.68;;
70067;SDS011;57425;51.616;6.680;2022-09-24T04:25:18;28.77;;;13.25;;
70067;SDS011;57425;51.616;6.680;2022-09-24T04:27:45;21.02;;;11.07;;
70067;SDS011;57425;51.616;6.680;2022-09-24T04:30:12;25.23;;;13.23;;
70067;SDS011;57425;51.616;6.680;2022-09-24T04:32:39;21.77;;;12.15;;
70067;SDS011;57425;51.616;6.680;2022-09-24T04:35:05;22.50;;;12.23;;
70067;SDS011;57425;51.616;6.680;2022-09-24T04:37:32;20.23;;;11.00;;
70067;SDS011;57425;51.616;6.680;2022-09-24T04:39:57;21.17;;;11.98;;
70067;SDS011;57425;51.616;6.680;2022-09-24T04:42:23;24.23;;;12.35;;
70067;SDS011;57425;51.616;6.680;2022-09-24T04:44:49;24.45;;;12.15;;
70067;SDS011;57425;51.616;6.680;2022-09-24T04:47:14;25.60;;;13.38;;
70067;SDS011;57425;51.616;6.680;2022-09-24T04:49:41;24.85;;;11.10;;
70067;SDS011;57425;51.616;6.680;2022-09-24T04:52:10;22.85;;;12.15;;
70067;SDS011;57425;51.616;6.680;2022-09-24T04:54:39;25.42;;;12.85;;
70067;SDS011;57425;51.616;6.680;2022-09-24T04:57:06;23.05;;;12.48;;
70067;SDS011;57425;51.616;6.680;2022-09-24T04:59:32;22.58;;;11.82;;
70067;SDS011;57425;51.616;6.680;2022-09-24T05:01:58;24.02;;;12.55;;
70067;SDS011;57425;51.616;6.680;2022-09-24T05:04:23;30.02;;;12.48;;
70067;SDS011;57425;51.616;6.680;2022-09-24T05:06:49;23.60;;;12.30;;
70067;SDS011;57425;51.616;6.680;2022-09-24T05:09:15;23.13;;;11.40;;
70067;SDS011;57425;51.616;6.680;2022-09-24T05:11:40;24.17;;;11.98;;
70067;SDS011;57425;51.616;6.680;2022-09-24T05:14:06;22.85;;;11.48;;
70067;SDS011;57425;51.616;6.680;2022-09-24T05:16:32;20.85;;;11.50;;
70067;SDS011;57425;51.616;6.680;2022-09-24T05:18:58;20.73;;;11.52;;
70067;SDS011;57425;51.616;6.680;2022-09-24T05:21:24;29.95;;;11.90;;
70067;SDS011;57425;51.616;6.680;2022-09-24T05:23:49;23.13;;;12.00;;
70067;SDS011;57425;51.616;6.680;2022-09-24T05:26:15;34.33;;;11.52;;
70067;SDS011;57425;51.616;6.680;2022-09-24T05:28:59;22.45;;;11.13;;
70067;SDS011;57425;51.616;6.680;2022-09-24T05:31:25;25.52;;;11.55;;
70067;SDS011;57425;51.616;6.680;2022-09-24T05:33:51;27.40;;;12.23;;
70067;SDS011;57425;51.616;6.680;2022-09-24T05:36:18;26.85;;;13.20;;
70067;SDS011;57425;51.616;6.680;2022-09-24T05:38:44;23.08;;;12.68;;
70067;SDS011;57425;51.616;6.680;2022-09-24T05:41:09;34.67;;;12.73;;
70067;SDS011;57425;51.616;6.680;2022-09-24T05:43:35;39.30;;;13.18;;
70067;SDS011;57425;51.616;6.680;2022-09-24T05:46:01;36.50;;;12.27;;
70067;SDS011;57425;51.616;6.680;2022-09-24T05:48:27;25.40;;;12.18;;
70067;SDS011;57425;51.616;6.680;2022-09-24T05:50:53;27.60;;;12.85;;
70067;SDS011;57425;51.616;6.680;2022-09-24T05:53:19;21.85;;;12.18;;
70067;SDS011;57425;51.616;6.680;2022-09-24T05:55:47;19.02;;;11.40;;
70067;SDS011;57425;51.616;6.680;2022-09-24T05:58:13;24.75;;;12.65;;
70067;SDS011;57425;51.616;6.680;2022-09-24T06:00:38;27.10;;;11.70;;
70067;SDS011;57425;51.616;6.680;2022-09-24T06:03:04;24.58;;;12.63;;
70067;SDS011;57425;51.616;6.680;2022-09-24T06:05:34;22.58;;;11.85;;
70067;SDS011;57425;51.616;6.680;2022-09-24T06:08:03;31.98;;;10.65;;
70067;SDS011;57425;51.616;6.680;2022-09-24T06:10:30;23.83;;;12.68;;
70067;SDS011;57425;51.616;6.680;2022-09-24T06:12:56;27.60;;;12.27;;
70067;SDS011;57425;51.616;6.680;2022-09-24T06:15:22;21.90;;;12.60;;
70067;SDS011;57425;51.616;6.680;2022-09-24T06:17:51;20.08;;;11.18;;
70067;SDS011;57425;51.616;6.680;2022-09-24T06:20:18;24.85;;;12.30;;
70067;SDS011;57425;51.616;6.680;2022-09-24T06:22:44;22.25;;;12.13;;
70067;SDS011;57425;51.616;6.680;2022-09-24T06:25:10;22.70;;;12.00;;
70067;SDS011;57425;51.616;6.680;2022-09-24T06:27:35;23.85;;;12.68;;
70067;SDS011;57425;51.616;6.680;2022-09-24T06:30:01;23.52;;;11.18;;
70067;SDS011;57425;51.616;6.680;2022-09-24T06:32:28;19.92;;;10.95;;
70067;SDS011;57425;51.616;6.680;2022-09-24T06:34:54;24.83;;;11.48;;
70067;SDS011;57425;51.616;6.680;2022-09-24T06:37:20;22.58;;;11.18;;
70067;SDS011;57425;51.616;6.680;2022-09-24T06:39:46;24.80;;;11.27;;
70067;SDS011;57425;51.616;6.680;2022-09-24T06:42:12;24.73;;;11.75;;
70067;SDS011;57425;51.616;6.680;2022-09-24T06:44:37;21.35;;;11.35;;
70067;SDS011;57425;51.616;6.680;2022-09-24T06:47:03;28.52;;;12.73;;
70067;SDS011;57425;51.616;6.680;2022-09-24T06:49:29;24.58;;;12.32;;
70067;SDS011;57425;51.616;6.680;2022-09-24T06:51:55;35.03;;;13.23;;
70067;SDS011;57425;51.616;6.680;2022-09-24T06:54:22;26.77;;;13.07;;
70067;SDS011;57425;51.616;6.680;2022-09-24T06:56:48;23.08;;;13.18;;
70067;SDS011;57425;51.616;6.680;2022-09-24T06:59:16;29.48;;;13.05;;
70067;SDS011;57425;51.616;6.680;2022-09-24T07:01:42;24.80;;;13.27;;
70067;SDS011;57425;51.616;6.680;2022-09-24T07:04:08;24.15;;;13.15;;
70067;SDS011;57425;51.616;6.680;2022-09-24T07:06:35;26.58;;;14.45;;
70067;SDS011;57425;51.616;6.680;2022-09-24T07:09:20;23.27;;;12.73;;
70067;SDS011;57425;51.616;6.680;2022-09-24T07:11:45;25.40;;;13.23;;
70067;SDS011;57425;51.616;6.680;2022-09-24T07:14:11;29.45;;;12.77;;
70067;SDS011;57425;51.616;6.680;2022-09-24T07:16:38;25.55;;;13.00;;
70067;SDS011;57425;51.616;6.680;2022-09-24T07:19:03;26.63;;;12.40;;
70067;SDS011;57425;51.616;6.680;2022-09-24T07:21:29;24.45;;;13.07;;
70067;SDS011;57425;51.616;6.680;2022-09-24T07:23:55;31.10;;;13.63;;
70067;SDS011;57425;51.616;6.680;2022-09-24T07:26:20;27.77;;;12.65;;
70067;SDS011;57425;51.616;6.680;2022-09-24T07:28:46;29.40;;;13.05;;
70067;SDS011;57425;51.616;6.680;2022-09-24T07:31:12;21.35;;;11.35;;
70067;SDS011;57425;51.616;6.680;2022-09-24T07:33:37;22.42;;;12.35;;
70067;SDS011;57425;51.616;6.680;2022-09-24T07:36:06;25.95;;;12.75;;
70067;SDS011;57425;51.616;6.680;2022-09-24T07:38:31;25.95;;;12.57;;
70067;SDS011;57425;51.616;6.680;2022-09-24T07:40:59;22.80;;;11.32;;
70067;SDS011;57425;51.616;6.680;2022-09-24T07:43:24;22.23;;;11.88;;
70067;SDS011;57425;51.616;6.680;2022-09-24T07:45:51;21.10;;;11.50;;
70067;SDS011;57425;51.616;6.680;2022-09-24T07:48:17;23.17;;;11.65;;
70067;SDS011;57425;51.616;6.680;2022-09-24T07:50:43;29.10;;;12.45;;
70067;SDS011;57425;51.616;6.680;2022-09-24T07:53:12;21.08;;;11.25;;
70067;SDS011;57425;51.616;6.680;2022-09-24T07:55:38;24.67;;;12.13;;
70067;SDS011;57425;51.616;6.680;2022-09-24T07:58:05;20.55;;;10.50;;
70067;SDS011;57425;51.616;6.680;2022-09-24T08:00:33;19.70;;;11.23;;
70067;SDS011;57425;51.616;6.680;2022-09-24T08:03:00;25.58;;;11.30;;
70067;SDS011;57425;51.616;6.680;2022-09-24T08:05:26;19.63;;;11.98;;
70067;SDS011;57425;51.616;6.680;2022-09-24T08:07:53;25.92;;;10.95;;
70067;SDS011;57425;51.616;6.680;2022-09-24T08:10:20;23.50;;;11.57;;
70067;SDS011;57425;51.616;6.680;2022-09-24T08:12:47;18.95;;;9.73;;
70067;SDS011;57425;51.616;6.680;2022-09-24T08:15:12;20.95;;;10.63;;
70067;SDS011;57425;51.616;6.680;2022-09-24T08:17:39;18.80;;;9.55;;
70067;SDS011;57425;51.616;6.680;2022-09-24T08:20:05;16.25;;;9.68;;
70067;SDS011;57425;51.616;6.680;2022-09-24T08:22:31;20.50;;;10.50;;
70067;SDS011;57425;51.616;6.680;2022-09-24T08:24:57;24.90;;;11.43;;
70067;SDS011;57425;51.616;6.680;2022-09-24T08:27:24;23.55;;;10.80;;
70067;SDS011;57425;51.616;6.680;2022-09-24T08:29:50;21.33;;;10.38;;
70067;SDS011;57425;51.616;6.680;2022-09-24T08:32:16;21.63;;;9.85;;
70067;SDS011;57425;51.616;6.680;2022-09-24T08:34:42;21.33;;;10.05;;
70067;SDS011;57425;51.616;6.680;2022-09-24T08:37:09;18.98;;;8.77;;
70067;SDS011;57425;51.616;6.680;2022-09-24T08:39:36;22.45;;;9.13;;
70067;SDS011;57425;51.616;6.680;2022-09-24T08:42:03;16.75;;;9.27;;
70067;SDS011;57425;51.616;6.680;2022-09-24T08:50:00;15.93;;;8.20;;
70067;SDS011;57425;51.616;6.680;2022-09-24T08:53:31;19.23;;;7.97;;
70067;SDS011;57425;51.616;6.680;2022-09-24T08:55:48;21.73;;;8.63;;
70067;SDS011;57425;51.616;6.680;2022-09-24T09:03:36;10.20;;;6.05;;
70067;SDS011;57425;51.616;6.680;2022-09-24T09:11:48;9.25;;;5.35;;
70067;SDS011;57425;51.616;6.680;2022-09-24T09:14:18;14.70;;;6.30;;
70067;SDS011;57425;51.616;6.680;2022-09-24T09:17:08;9.27;;;5.90;;
70067;SDS011;57425;51.616;6.680;2022-09-24T09:19:42;11.85;;;5.38;;
70067;SDS011;57425;51.616;6.680;2022-09-24T09:22:15;9.65;;;5.82;;
70067;SDS011;57425;51.616;6.680;2022-09-24T09:24:47;8.95;;;5.10;;
70067;SDS011;57425;51.616;6.680;2022-09-24T09:27:15;10.55;;;5.97;;
70067;SDS011;57425;51.616;6.680;2022-09-24T09:29:55;13.45;;;6.40;;
70067;SDS011;57425;51.616;6.680;2022-09-24T09:42:58;10.35;;;6.40;;
70067;SDS011;57425;51.616;6.680;2022-09-24T09:48:04;9.07;;;5.13;;
70067;SDS011;57425;51.616;6.680;2022-09-24T09:50:52;8.13;;;5.43;;
70067;SDS011;57425;51.616;6.680;2022-09-24T09:53:24;10.48;;;5.53;;
70067;SDS011;57425;51.616;6.680;2022-09-24T09:55:52;8.77;;;5.07;;
70067;SDS011;57425;51.616;6.680;2022-09-24T09:58:23;10.38;;;5.82;;
70067;SDS011;57425;51.616;6.680;2022-09-24T10:06:10;11.18;;;5.20;;
70067;SDS011;57425;51.616;6.680;2022-09-24T10:08:47;9.82;;;5.47;;
70067;SDS011;57425;51.616;6.680;2022-09-24T10:11:13;10.52;;;4.80;;
70067;SDS011;57425;51.616;6.680;2022-09-24T10:13:40;12.05;;;5.00;;
70067;SDS011;57425;51.616;6.680;2022-09-24T10:16:07;9.07;;;4.70;;
70067;SDS011;57425;51.616;6.680;2022-09-24T10:18:36;7.70;;;5.22;;
70067;SDS011;57425;51.616;6.680;2022-09-24T10:21:10;10.50;;;5.40;;
70067;SDS011;57425;51.616;6.680;2022-09-24T10:23:38;11.55;;;5.18;;
70067;SDS011;57425;51.616;6.680;2022-09-24T10:26:12;9.80;;;5.50;;
70067;SDS011;57425;51.616;6.680;2022-09-24T10:28:46;10.27;;;5.25;;
70067;SDS011;57425;51.616;6.680;2022-09-24T10:31:33;10.67;;;4.90;;
70067;SDS011;57425;51.616;6.680;2022-09-24T10:34:01;11.68;;;5.63;;
70067;SDS011;57425;51.616;6.680;2022-09-24T10:36:28;10.90;;;5.80;;
70067;SDS011;57425;51.616;6.680;2022-09-24T10:39:13;9.13;;;5.45;;
70067;SDS011;57425;51.616;6.680;2022-09-24T10:41:49;14.23;;;6.18;;
70067;SDS011;57425;51.616;6.680;2022-09-24T10:44:17;40.40;;;6.65;;
70067;SDS011;57425;51.616;6.680;2022-09-24T10:52:23;9.82;;;5.10;;
70067;SDS011;57425;51.616;6.680;2022-09-24T10:58:22;10.63;;;6.15;;
70067;SDS011;57425;51.616;6.680;2022-09-24T11:11:41;13.50;;;5.55;;
70067;SDS011;57425;51.616;6.680;2022-09-24T11:14:23;14.57;;;5.88;;
70067;SDS011;57425;51.616;6.680;2022-09-24T11:17:16;8.40;;;4.85;;
70067;SDS011;57425;51.616;6.680;2022-09-24T11:47:42;16.15;;;5.55;;
70067;SDS011;57425;51.616;6.680;2022-09-24T11:58:18;10.07;;;5.30;;
70067;SDS011;57425;51.616;6.680;2022-09-24T12:00:54;12.45;;;6.45;;
70067;SDS011;57425;51.616;6.680;2022-09-24T12:06:06;12.98;;;5.78;;
70067;SDS011;57425;51.616;6.680;2022-09-24T12:08:41;10.45;;;5.30;;
70067;SDS011;57425;51.616;6.680;2022-09-24T12:11:30;10.93;;;5.97;;
70067;SDS011;57425;51.616;6.680;2022-09-24T12:13:59;10.32;;;5.40;;
70067;SDS011;57425;51.616;6.680;2022-09-24T12:16:45;9.25;;;4.57;;
70067;SDS011;57425;51.616;6.680;2022-09-24T12:19:16;8.50;;;5.03;;
70067;SDS011;57425;51.616;6.680;2022-09-24T12:21:49;9.85;;;5.03;;
70067;SDS011;57425;51.616;6.680;2022-09-24T12:27:00;11.23;;;5.03;;
70067;SDS011;57425;51.616;6.680;2022-09-24T12:32:23;9.40;;;5.30;;
70067;SDS011;57425;51.616;6.680;2022-09-24T12:38:25;9.40;;;4.93;;
70067;SDS011;57425;51.616;6.680;2022-09-24T12:49:18;10.60;;;5.53;;
70067;SDS011;57425;51.616;6.680;2022-09-24T12:51:47;12.10;;;5.72;;
70067;SDS011;57425;51.616;6.680;2022-09-24T12:59:46;14.23;;;6.50;;
70067;SDS011;57425;51.616;6.680;2022-09-24T13:04:51;11.05;;;6.10;;
70067;SDS011;57425;51.616;6.680;2022-09-24T13:07:34;8.05;;;5.20;;
70067;SDS011;57425;51.616;6.680;2022-09-24T13:10:26;8.85;;;5.57;;
70067;SDS011;57425;51.616;6.680;2022-09-24T13:13:00;11.05;;;5.47;;
70067;SDS011;57425;51.616;6.680;2022-09-24T13:15:37;11.30;;;5.55;;
70067;SDS011;57425;51.616;6.680;2022-09-24T13:20:34;10.48;;;5.85;;
70067;SDS011;57425;51.616;6.680;2022-09-24T13:25:38;9.65;;;5.72;;
70067;SDS011;57425;51.616;6.680;2022-09-24T13:28:21;10.90;;;5.10;;
70067;SDS011;57425;51.616;6.680;2022-09-24T13:30:57;11.33;;;4.80;;
70067;SDS011;57425;51.616;6.680;2022-09-24T13:33:27;8.85;;;5.10;;
70067;SDS011;57425;51.616;6.680;2022-09-24T13:44:33;12.63;;;5.82;;
70067;SDS011;57425;51.616;6.680;2022-09-24T13:47:18;9.80;;;5.65;;
70067;SDS011;57425;51.616;6.680;2022-09-24T13:49:47;12.85;;;6.05;;
70067;SDS011;57425;51.616;6.680;2022-09-24T13:54:55;11.23;;;5.65;;
70067;SDS011;57425;51.616;6.680;2022-09-24T13:57:25;9.35;;;5.72;;
70067;SDS011;57425;51.616;6.680;2022-09-24T14:02:42;9.77;;;5.03;;
70067;SDS011;57425;51.616;6.680;2022-09-24T14:05:16;11.35;;;5.97;;
70067;SDS011;57425;51.616;6.680;2022-09-24T14:10:29;10.98;;;4.88;;
70067;SDS011;57425;51.616;6.680;2022-09-24T14:15:57;9.80;;;5.75;;
70067;SDS011;57425;51.616;6.680;2022-09-24T14:18:25;13.15;;;5.22;;
70067;SDS011;57425;51.616;6.680;2022-09-24T14:21:02;8.10;;;5.40;;
70067;SDS011;57425;51.616;6.680;2022-09-24T14:23:42;10.35;;;5.32;;
70067;SDS011;57425;51.616;6.680;2022-09-24T14:26:25;10.57;;;5.85;;
70067;SDS011;57425;51.616;6.680;2022-09-24T14:28:54;9.52;;;5.90;;
70067;SDS011;57425;51.616;6.680;2022-09-24T14:31:21;13.57;;;5.47;;
70067;SDS011;57425;51.616;6.680;2022-09-24T14:33:47;8.65;;;5.45;;
70067;SDS011;57425;51.616;6.680;2022-09-24T14:36:13;12.25;;;5.90;;
70067;SDS011;57425;51.616;6.680;2022-09-24T14:38:59;12.57;;;5.75;;
70067;SDS011;57425;51.616;6.680;2022-09-24T14:41:33;12.27;;;6.70;;
70067;SDS011;57425;51.616;6.680;2022-09-24T14:44:01;12.60;;;5.85;;
70067;SDS011;57425;51.616;6.680;2022-09-24T14:46:33;10.85;;;6.45;;
70067;SDS011;57425;51.616;6.680;2022-09-24T14:49:21;11.63;;;6.65;;
70067;SDS011;57425;51.616;6.680;2022-09-24T14:51:59;10.27;;;6.55;;
70067;SDS011;57425;51.616;6.680;2022-09-24T14:57:09;12.05;;;6.90;;
70067;SDS011;57425;51.616;6.680;2022-09-24T14:59:44;11.52;;;7.18;;
70067;SDS011;57425;51.616;6.680;2022-09-24T15:02:30;13.43;;;6.95;;
70067;SDS011;57425;51.616;6.680;2022-09-24T15:05:02;15.85;;;7.70;;
70067;SDS011;57425;51.616;6.680;2022-09-24T15:07:29;13.98;;;6.75;;
70067;SDS011;57425;51.616;6.680;2022-09-24T15:09:57;13.57;;;7.13;;
70067;SDS011;57425;51.616;6.680;2022-09-24T15:12:25;29.60;;;7.47;;
70067;SDS011;57425;51.616;6.680;2022-09-24T15:15:06;14.65;;;7.20;;
70067;SDS011;57425;51.616;6.680;2022-09-24T15:17:49;12.15;;;6.97;;
70067;SDS011;57425;51.616;6.680;2022-09-24T15:20:15;12.45;;;6.78;;
70067;SDS011;57425;51.616;6.680;2022-09-24T15:22:40;10.88;;;6.75;;
70067;SDS011;57425;51.616;6.680;2022-09-24T15:25:06;14.55;;;7.38;;
70067;SDS011;57425;51.616;6.680;2022-09-24T15:27:33;10.10;;;6.60;;
70067;SDS011;57425;51.616;6.680;2022-09-24T15:30:02;10.85;;;6.90;;
70067;SDS011;57425;51.616;6.680;2022-09-24T15:32:29;13.60;;;6.68;;
70067;SDS011;57425;51.616;6.680;2022-09-24T15:34:57;12.13;;;6.97;;
70067;SDS011;57425;51.616;6.680;2022-09-24T15:37:24;11.45;;;6.60;;
70067;SDS011;57425;51.616;6.680;2022-09-24T15:39:52;12.77;;;6.70;;
70067;SDS011;57425;51.616;6.680;2022-09-24T15:42:22;11.73;;;6.13;;
70067;SDS011;57425;51.616;6.680;2022-09-24T15:44:49;11.25;;;6.80;;
70067;SDS011;57425;51.616;6.680;2022-09-24T15:47:16;13.20;;;6.53;;
70067;SDS011;57425;51.616;6.680;2022-09-24T15:49:42;11.13;;;6.43;;
70067;SDS011;57425;51.616;6.680;2022-09-24T15:54:49;14.02;;;6.10;;
70067;SDS011;57425;51.616;6.680;2022-09-24T15:57:18;13.90;;;7.07;;
70067;SDS011;57425;51.616;6.680;2022-09-24T15:59:44;10.70;;;6.07;;
70067;SDS011;57425;51.616;6.680;2022-09-24T16:02:14;11.88;;;7.05;;
70067;SDS011;57425;51.616;6.680;2022-09-24T16:04:42;11.80;;;6.18;;
70067;SDS011;57425;51.616;6.680;2022-09-24T16:07:07;12.65;;;6.55;;
70067;SDS011;57425;51.616;6.680;2022-09-24T16:09:33;11.00;;;6.40;;
70067;SDS011;57425;51.616;6.680;2022-09-24T16:11:59;12.63;;;7.43;;
70067;SDS011;57425;51.616;6.680;2022-09-24T16:14:25;11.60;;;6.63;;
70067;SDS011;57425;51.616;6.680;2022-09-24T16:16:51;16.40;;;6.45;;
70067;SDS011;57425;51.616;6.680;2022-09-24T16:19:16;13.55;;;6.40;;
70067;SDS011;57425;51.616;6.680;2022-09-24T16:21:42;16.10;;;6.78;;
70067;SDS011;57425;51.616;6.680;2022-09-24T16:24:08;10.32;;;5.75;;
70067;SDS011;57425;51.616;6.680;2022-09-24T16:26:33;13.63;;;6.22;;
70067;SDS011;57425;51.616;6.680;2022-09-24T16:29:02;12.30;;;6.57;;
70067;SDS011;57425;51.616;6.680;2022-09-24T16:31:29;10.98;;;6.05;;
70067;SDS011;57425;51.616;6.680;2022-09-24T16:33:55;11.98;;;6.65;;
70067;SDS011;57425;51.616;6.680;2022-09-24T16:36:20;12.20;;;6.72;;
70067;SDS011;57425;51.616;6.680;2022-09-24T16:38:47;11.20;;;6.85;;
70067;SDS011;57425;51.616;6.680;2022-09-24T16:41:14;12.73;;;6.65;;
70067;SDS011;57425;51.616;6.680;2022-09-24T16:43:39;17.38;;;7.22;;
70067;SDS011;57425;51.616;6.680;2022-09-24T16:46:06;16.60;;;6.63;;
70067;SDS011;57425;51.616;6.680;2022-09-24T16:48:34;13.15;;;7.00;;
70067;SDS011;57425;51.616;6.680;2022-09-24T16:51:07;14.32;;;7.85;;
70067;SDS011;57425;51.616;6.680;2022-09-24T16:53:35;13.02;;;7.50;;
70067;SDS011;57425;51.616;6.680;2022-09-24T16:56:04;14.93;;;6.68;;
70067;SDS011;57425;51.616;6.680;2022-09-24T16:58:32;13.93;;;8.25;;
70067;SDS011;57425;51.616;6.680;2022-09-24T17:00:59;13.15;;;7.63;;
70067;SDS011;57425;51.616;6.680;2022-09-24T17:03:28;14.55;;;6.95;;
70067;SDS011;57425;51.616;6.680;2022-09-24T17:05:54;11.55;;;7.07;;
70067;SDS011;57425;51.616;6.680;2022-09-24T17:08:19;12.63;;;7.30;;
70067;SDS011;57425;51.616;6.680;2022-09-24T17:10:48;12.70;;;7.10;;
70067;SDS011;57425;51.616;6.680;2022-09-24T17:13:14;14.43;;;8.13;;
70067;SDS011;57425;51.616;6.680;2022-09-24T17:15:40;11.73;;;7.45;;
70067;SDS011;57425;51.616;6.680;2022-09-24T17:18:05;13.52;;;7.28;;
70067;SDS011;57425;51.616;6.680;2022-09-24T17:20:31;11.80;;;7.07;;
70067;SDS011;57425;51.616;6.680;2022-09-24T17:22:57;17.92;;;8.63;;
70067;SDS011;57425;51.616;6.680;2022-09-24T17:25:22;13.07;;;7.32;;
70067;SDS011;57425;51.616;6.680;2022-09-24T17:27:48;19.02;;;8.35;;
70067;SDS011;57425;51.616;6.680;2022-09-24T17:30:14;12.63;;;7.40;;
70067;SDS011;57425;51.616;6.680;2022-09-24T17:32:40;19.52;;;7.97;;